createdAt,value
2022-11-28T00:02:00.019Z,14.27
2022-11-28T00:04:27.707Z,15.67
2022-11-28T00:06:55.394Z,14.17
2022-11-28T00:09:23.206Z,14.87
2022-11-28T00:11:50.965Z,15.03
2022-11-28T00:14:20.643Z,14.67
2022-11-28T00:16:48.784Z,14.07
2022-11-28T00:19:16.803Z,14.40
2022-11-28T00:21:44.448Z,15.57
2022-11-28T00:24:12.167Z,14.63
2022-11-28T00:26:42.151Z,14.90
2022-11-28T00:29:10.808Z,16.20
2022-11-28T00:31:43.760Z,14.30
2022-11-28T00:34:14.004Z,15.33
2022-11-28T00:36:43.645Z,15.07
2022-11-28T00:39:11.224Z,14.67
2022-11-28T00:41:38.991Z,15.83
2022-11-28T00:44:06.966Z,17.17
2022-11-28T00:46:34.729Z,17.05
2022-11-28T00:49:03.787Z,16.50
2022-11-28T00:51:33.375Z,16.57
2022-11-28T00:54:03.849Z,16.43
2022-11-28T00:56:34.655Z,17.93
2022-11-28T00:59:02.639Z,16.30
2022-11-28T01:01:32.047Z,16.58
2022-11-28T01:04:02.394Z,18.67
2022-11-28T01:06:34.667Z,18.50
2022-11-28T01:09:04.673Z,18.87
2022-11-28T01:11:32.675Z,17.57
2022-11-28T01:14:02.272Z,19.75
2022-11-28T01:16:30.382Z,19.73
2022-11-28T01:18:58.505Z,17.42
2022-11-28T01:21:27.187Z,19.10
2022-11-28T01:23:56.249Z,19.75
2022-11-28T01:26:26.320Z,21.03
2022-11-28T01:28:54.448Z,19.27
2022-11-28T01:31:24.950Z,19.90
2022-11-28T01:33:53.365Z,20.97
2022-11-28T01:36:22.034Z,19.92
2022-11-28T01:38:50.293Z,18.75
2022-11-28T01:41:22.565Z,19.98
2022-11-28T01:44:02.593Z,21.07
2022-11-28T01:46:31.852Z,20.63
2022-11-28T01:49:05.270Z,19.70
2022-11-28T01:51:33.419Z,20.70
2022-11-28T01:54:01.413Z,20.50
2022-11-28T01:56:39.263Z,21.90
2022-11-28T01:59:11.542Z,20.42
2022-11-28T02:01:40.464Z,21.10
2022-11-28T02:04:08.245Z,19.77
2022-11-28T02:06:36.871Z,20.10
2022-11-28T02:09:04.998Z,20.92
2022-11-28T02:11:57.991Z,19.83
2022-11-28T02:14:45.078Z,20.27
2022-11-28T02:17:22.144Z,20.07
2022-11-28T02:20:22.268Z,19.63
2022-11-28T02:22:59.099Z,16.87
2022-11-28T02:26:07.550Z,19.97
2022-11-28T02:31:33.390Z,17.03
2022-11-28T02:34:05.899Z,16.17
2022-11-28T02:36:38.154Z,18.40
2022-11-28T02:39:13.549Z,16.90
2022-11-28T02:41:46.458Z,17.70
2022-11-28T02:44:17.442Z,17.77
2022-11-28T02:46:53.360Z,17.43
2022-11-28T02:49:24.977Z,17.47
2022-11-28T02:51:57.180Z,15.60
2022-11-28T02:54:27.310Z,16.37
2022-11-28T02:56:56.168Z,16.00
2022-11-28T03:01:58.326Z,16.93
2022-11-28T03:04:36.057Z,16.48
2022-11-28T03:07:16.422Z,17.67
2022-11-28T03:10:06.147Z,17.67
2022-11-28T03:12:47.707Z,17.07
2022-11-28T03:15:21.013Z,16.93
2022-11-28T03:17:56.211Z,19.53
2022-11-28T03:20:32.465Z,19.03
2022-11-28T03:23:11.059Z,20.87
2022-11-28T03:25:48.799Z,18.55
2022-11-28T03:28:23.257Z,19.57
2022-11-28T03:30:55.956Z,24.47
2022-11-28T03:33:26.475Z,22.43
2022-11-28T03:35:59.353Z,22.10
2022-11-28T03:38:31.569Z,22.43
2022-11-28T03:41:04.048Z,26.50
2022-11-28T03:43:37.686Z,23.53
2022-11-28T03:46:09.919Z,23.07
2022-11-28T03:48:42.998Z,25.40
2022-11-28T03:51:17.289Z,24.97
2022-11-28T03:53:52.101Z,24.57
2022-11-28T03:56:26.314Z,25.83
2022-11-28T03:58:59.151Z,26.00
2022-11-28T04:01:32.589Z,27.00
2022-11-28T04:04:11.306Z,27.87
2022-11-28T04:06:51.658Z,28.17
2022-11-28T04:09:24.692Z,28.43
2022-11-28T04:11:56.478Z,27.37
2022-11-28T04:14:30.405Z,28.97
2022-11-28T04:17:08.994Z,32.47
2022-11-28T04:19:39.522Z,27.67
2022-11-28T04:22:14.190Z,32.00
2022-11-28T04:24:47.421Z,30.40
2022-11-28T04:27:19.208Z,31.57
2022-11-28T04:29:51.468Z,29.93
2022-11-28T04:32:20.606Z,29.27
2022-11-28T04:34:53.726Z,30.33
2022-11-28T04:37:24.156Z,29.60
2022-11-28T04:39:53.327Z,30.17
2022-11-28T04:42:24.455Z,31.20
2022-11-28T04:44:56.634Z,30.13
2022-11-28T04:47:25.449Z,33.97
2022-11-28T04:52:30.261Z,28.37
2022-11-28T04:55:03.193Z,29.63
2022-11-28T04:57:36.057Z,28.57
2022-11-28T05:00:09.024Z,29.53
2022-11-28T05:02:37.762Z,31.73
2022-11-28T05:07:37.405Z,27.67
2022-11-28T05:10:05.645Z,29.73
2022-11-28T05:12:33.284Z,30.20
2022-11-28T05:15:00.934Z,31.13
2022-11-28T05:17:28.855Z,28.03
2022-11-28T05:19:56.403Z,29.55
2022-11-28T05:22:24.060Z,27.60
2022-11-28T05:24:53.074Z,29.97
2022-11-28T05:27:20.641Z,28.00
2022-11-28T05:29:52.127Z,27.23
2022-11-28T05:32:20.030Z,27.90
2022-11-28T05:34:47.641Z,27.23
2022-11-28T05:37:15.292Z,28.67
2022-11-28T05:39:43.126Z,30.43
2022-11-28T05:42:12.295Z,27.23
2022-11-28T05:44:40.086Z,28.03
2022-11-28T05:47:07.695Z,26.97
2022-11-28T05:49:35.477Z,28.10
2022-11-28T05:52:03.056Z,24.97
2022-11-28T05:54:31.627Z,27.13
2022-11-28T05:56:59.344Z,26.35
2022-11-28T05:59:28.244Z,24.00
2022-11-28T06:04:23.499Z,25.07
2022-11-28T06:06:51.893Z,25.90
2022-11-28T06:09:24.514Z,24.65
2022-11-28T06:11:53.401Z,26.30
2022-11-28T06:14:21.094Z,27.33
2022-11-28T06:16:50.055Z,25.80
2022-11-28T06:19:17.712Z,25.60
2022-11-28T06:21:45.868Z,26.08
2022-11-28T06:24:13.523Z,26.10
2022-11-28T06:26:41.144Z,25.00
2022-11-28T06:29:08.745Z,26.40
2022-11-28T06:31:36.373Z,26.30
2022-11-28T06:34:05.365Z,25.07
2022-11-28T06:36:32.968Z,27.07
2022-11-28T06:39:00.558Z,26.87
2022-11-28T06:41:28.143Z,26.40
2022-11-28T06:43:56.391Z,26.73
2022-11-28T06:46:24.522Z,28.58
2022-11-28T06:48:53.342Z,26.63
2022-11-28T06:51:22.665Z,25.80
2022-11-28T06:53:50.887Z,25.83
2022-11-28T06:56:21.065Z,26.98
2022-11-28T06:58:55.718Z,26.50
2022-11-28T07:01:24.769Z,27.53
2022-11-28T07:03:54.274Z,26.63
2022-11-28T07:06:25.177Z,28.20
2022-11-28T07:08:53.591Z,28.73
2022-11-28T07:11:24.006Z,27.20
2022-11-28T07:13:52.326Z,26.93
2022-11-28T07:16:22.196Z,28.02
2022-11-28T07:18:50.229Z,26.70
2022-11-28T07:21:18.883Z,29.55
2022-11-28T07:23:48.294Z,27.83
2022-11-28T07:26:19.067Z,31.47
2022-11-28T07:28:47.403Z,30.73
2022-11-28T07:31:17.188Z,31.35
2022-11-28T07:33:47.453Z,32.37
2022-11-28T07:36:17.502Z,31.03
2022-11-28T07:38:48.792Z,32.33
2022-11-28T07:41:16.700Z,36.13
2022-11-28T07:43:45.825Z,31.40
2022-11-28T07:46:16.679Z,32.57
2022-11-28T07:48:45.027Z,35.43
2022-11-28T07:51:14.109Z,33.20
2022-11-28T07:53:42.203Z,34.23
2022-11-28T07:56:14.886Z,31.00
2022-11-28T07:58:44.142Z,29.83
2022-11-28T08:01:14.044Z,32.30
2022-11-28T08:03:41.965Z,29.87
2022-11-28T08:06:10.255Z,29.30
2022-11-28T08:08:38.262Z,29.95
2022-11-28T08:11:09.000Z,29.57
2022-11-28T08:13:38.993Z,30.37
2022-11-28T08:16:08.599Z,29.93
2022-11-28T08:18:36.719Z,30.40
2022-11-28T08:21:06.234Z,33.25
2022-11-28T08:23:35.378Z,33.67
2022-11-28T08:26:03.141Z,32.33
2022-11-28T08:28:31.545Z,30.87
2022-11-28T08:31:03.946Z,32.15
2022-11-28T08:33:31.543Z,32.53
2022-11-28T08:35:59.121Z,33.77
2022-11-28T08:38:26.617Z,33.27
2022-11-28T08:41:02.067Z,34.00
2022-11-28T08:43:29.636Z,34.70
2022-11-28T08:45:57.821Z,32.77
2022-11-28T08:48:26.965Z,33.72
2022-11-28T08:50:55.139Z,35.37
2022-11-28T08:53:22.912Z,35.53
2022-11-28T08:55:50.663Z,32.60
2022-11-28T08:58:18.288Z,34.50
2022-11-28T09:00:46.213Z,33.47
2022-11-28T09:03:15.741Z,34.97
2022-11-28T09:05:46.101Z,32.90
2022-11-28T09:08:13.817Z,37.80
2022-11-28T09:10:41.981Z,37.17
2022-11-28T09:13:09.982Z,33.30
2022-11-28T09:15:40.477Z,38.22
2022-11-28T09:18:08.267Z,34.53
2022-11-28T09:20:36.414Z,41.83
2022-11-28T09:23:05.560Z,38.20
2022-11-28T09:25:35.672Z,37.87
2022-11-28T09:28:03.224Z,37.57
2022-11-28T09:30:30.844Z,42.30
2022-11-28T09:32:58.424Z,36.10
2022-11-28T09:35:26.234Z,38.17
2022-11-28T09:37:53.857Z,37.77
2022-11-28T09:40:29.910Z,37.27
2022-11-28T09:42:59.459Z,34.80
2022-11-28T09:45:27.239Z,34.57
2022-11-28T09:47:57.268Z,36.33
2022-11-28T09:50:27.783Z,40.23
2022-11-28T09:53:00.451Z,40.03
2022-11-28T09:55:36.157Z,41.17
2022-11-28T09:58:09.899Z,40.90
2022-11-28T10:00:43.673Z,40.90
2022-11-28T10:03:33.685Z,39.07
2022-11-28T10:06:11.122Z,40.47
2022-11-28T10:08:48.400Z,40.17
2022-11-28T10:11:32.135Z,36.57
2022-11-28T10:14:14.155Z,38.07
2022-11-28T10:16:53.978Z,41.47
2022-11-28T10:19:53.485Z,36.80
2022-11-28T10:22:21.405Z,39.03
2022-11-28T10:24:54.824Z,36.60
2022-11-28T10:27:30.140Z,39.67
2022-11-28T10:30:02.185Z,36.10
2022-11-28T10:32:34.153Z,39.30
2022-11-28T10:35:05.314Z,39.97
2022-11-28T10:37:37.788Z,39.43
2022-11-28T10:40:17.735Z,36.57
2022-11-28T10:42:53.755Z,36.83
2022-11-28T10:45:28.254Z,38.80
2022-11-28T10:48:38.442Z,38.13
2022-11-28T10:51:10.520Z,37.70
2022-11-28T10:53:45.035Z,36.90
2022-11-28T10:56:24.173Z,36.07
2022-11-28T10:58:59.603Z,35.67
2022-11-28T11:01:30.769Z,36.03
2022-11-28T11:03:58.473Z,34.00
2022-11-28T11:06:36.092Z,33.73
2022-11-28T11:09:10.588Z,34.67
2022-11-28T11:11:50.154Z,36.30
2022-11-28T11:14:34.191Z,34.63
2022-11-28T11:17:01.791Z,34.23
2022-11-28T11:19:31.516Z,34.43
2022-11-28T11:22:03.353Z,35.40
2022-11-28T11:24:31.560Z,36.40
2022-11-28T11:27:06.689Z,34.85
2022-11-28T11:29:37.935Z,31.97
2022-11-28T11:32:07.592Z,33.47
2022-11-28T11:34:39.355Z,33.60
2022-11-28T11:37:22.613Z,34.13
2022-11-28T11:39:52.313Z,34.63
2022-11-28T11:42:23.446Z,33.47
2022-11-28T11:44:52.743Z,36.03
2022-11-28T11:47:20.357Z,36.37
2022-11-28T11:49:49.578Z,35.10
2022-11-28T11:52:23.234Z,35.63
2022-11-28T11:54:58.733Z,37.43
2022-11-28T11:57:33.987Z,33.90
2022-11-28T12:00:07.718Z,36.57
2022-11-28T12:02:40.850Z,36.13
2022-11-28T12:05:14.317Z,31.47
2022-11-28T12:07:53.501Z,34.37
2022-11-28T12:10:26.094Z,32.30
2022-11-28T12:12:54.092Z,31.70
2022-11-28T12:15:32.694Z,32.63
2022-11-28T12:18:13.939Z,31.58
2022-11-28T12:21:00.468Z,32.60
2022-11-28T12:23:45.170Z,32.83
2022-11-28T12:26:21.912Z,30.63
2022-11-28T12:29:06.042Z,31.97
2022-11-28T12:31:47.954Z,33.97
2022-11-28T12:34:29.379Z,33.43
2022-11-28T12:37:08.122Z,33.20
2022-11-28T12:42:30.432Z,30.27
2022-11-28T12:45:20.231Z,31.13
2022-11-28T12:48:00.111Z,33.47
2022-11-28T12:50:34.023Z,31.83
2022-11-28T12:53:24.405Z,33.00
2022-11-28T12:55:57.627Z,31.87
2022-11-28T12:58:30.707Z,31.37
2022-11-28T13:01:08.251Z,33.77
2022-11-28T13:03:43.648Z,33.10
2022-11-28T13:06:25.631Z,33.37
2022-11-28T13:09:15.024Z,32.27
2022-11-28T13:11:54.338Z,30.97
2022-11-28T13:14:32.748Z,31.17
2022-11-28T13:17:08.557Z,32.20
2022-11-28T13:19:47.841Z,32.10
2022-11-28T13:22:23.423Z,30.27
2022-11-28T13:25:00.743Z,31.13
2022-11-28T13:27:38.039Z,31.30
2022-11-28T13:30:17.965Z,29.37
2022-11-28T13:32:48.911Z,29.23
2022-11-28T13:35:19.671Z,27.80
2022-11-28T13:40:46.780Z,28.10
2022-11-28T13:43:18.924Z,30.37
2022-11-28T13:45:48.163Z,29.57
2022-11-28T13:51:42.788Z,28.10
2022-11-28T13:54:45.516Z,29.23
2022-11-28T13:57:22.455Z,29.60
2022-11-28T14:00:01.718Z,31.43
2022-11-28T14:02:45.226Z,31.80
2022-11-28T14:05:35.399Z,30.23
2022-11-28T14:08:07.094Z,30.97
2022-11-28T14:10:56.690Z,31.90
2022-11-28T14:13:44.681Z,29.93
2022-11-28T14:16:23.694Z,30.55
2022-11-28T14:19:04.804Z,31.73
2022-11-28T14:21:43.988Z,30.30
2022-11-28T14:24:21.481Z,28.93
2022-11-28T14:26:58.603Z,29.23
2022-11-28T14:29:31.920Z,27.27
2022-11-28T14:32:29.647Z,28.80
2022-11-28T14:34:48.905Z,28.50
2022-11-28T14:37:48.667Z,28.70
2022-11-28T14:41:05.456Z,28.43
2022-11-28T14:43:39.305Z,30.40
2022-11-28T14:46:23.616Z,37.63
2022-11-28T14:49:20.224Z,38.43
2022-11-28T14:52:37.935Z,36.07
2022-11-28T14:55:15.935Z,32.93
2022-11-28T14:57:55.259Z,30.83
2022-11-28T15:00:27.668Z,34.50
2022-11-28T15:03:11.262Z,34.73
2022-11-28T15:05:45.070Z,31.33
2022-11-28T15:08:26.218Z,31.57
2022-11-28T15:11:04.271Z,32.87
2022-11-28T15:13:42.411Z,30.13
2022-11-28T15:16:14.723Z,28.88
2022-11-28T15:18:50.532Z,28.73
2022-11-28T15:21:20.105Z,32.60
2022-11-28T15:23:47.928Z,30.10
2022-11-28T15:26:29.980Z,33.03
2022-11-28T15:29:10.816Z,32.97
2022-11-28T15:31:39.851Z,32.13
2022-11-28T15:34:10.255Z,32.33
2022-11-28T15:36:40.024Z,32.60
2022-11-28T15:39:25.628Z,34.00
2022-11-28T15:41:53.522Z,38.07
2022-11-28T15:44:21.211Z,44.80
2022-11-28T15:46:50.442Z,33.13
2022-11-28T15:49:26.297Z,33.13
2022-11-28T15:51:55.395Z,32.57
2022-11-28T15:54:32.889Z,32.17
2022-11-28T15:57:01.739Z,32.47
2022-11-28T16:02:03.096Z,30.70
2022-11-28T16:04:31.801Z,31.80
2022-11-28T16:07:02.537Z,29.60
2022-11-28T16:09:34.897Z,30.03
2022-11-28T16:12:04.032Z,30.43
2022-11-28T16:14:33.931Z,31.67
2022-11-28T16:17:07.870Z,31.70
2022-11-28T16:19:38.208Z,31.57
2022-11-28T16:22:09.215Z,30.33
2022-11-28T16:24:46.067Z,31.27
2022-11-28T16:27:29.063Z,34.07
2022-11-28T16:29:57.264Z,44.43
2022-11-28T16:32:38.018Z,35.72
2022-11-28T16:35:08.602Z,34.57
2022-11-28T16:37:36.327Z,37.00
2022-11-28T16:40:07.860Z,35.47
2022-11-28T16:42:36.392Z,36.33
2022-11-28T16:45:16.505Z,38.03
2022-11-28T16:47:46.343Z,37.20
2022-11-28T16:50:21.869Z,38.77
2022-11-28T16:52:51.291Z,36.00
2022-11-28T16:55:39.777Z,34.60
2022-11-28T16:58:19.556Z,35.80
2022-11-28T17:00:57.735Z,39.70
2022-11-28T17:03:49.299Z,69.20
2022-11-28T17:06:20.872Z,36.53
2022-11-28T17:08:48.712Z,38.80
2022-11-28T17:11:17.912Z,35.93
2022-11-28T17:13:45.515Z,35.93
2022-11-28T17:16:17.190Z,35.80
2022-11-28T17:18:45.721Z,34.93
2022-11-28T17:21:16.260Z,36.50
2022-11-28T17:23:44.269Z,36.27
2022-11-28T17:26:12.152Z,35.55
2022-11-28T17:28:40.170Z,36.45
2022-11-28T17:31:07.992Z,38.10
2022-11-28T17:33:38.383Z,40.17
2022-11-28T17:36:10.922Z,38.53
2022-11-28T17:38:40.033Z,37.20
2022-11-28T17:41:12.768Z,37.43
2022-11-28T17:43:40.415Z,36.90
2022-11-28T17:46:08.171Z,37.93
2022-11-28T17:48:35.864Z,37.40
2022-11-28T17:51:03.716Z,36.70
2022-11-28T17:53:31.426Z,41.00
2022-11-28T17:56:00.617Z,37.77
2022-11-28T17:58:28.763Z,35.53
2022-11-28T18:01:00.526Z,34.78
2022-11-28T18:03:29.070Z,35.50
2022-11-28T18:05:56.680Z,36.65
2022-11-28T18:08:24.377Z,35.10
2022-11-28T18:11:02.318Z,35.00
2022-11-28T18:13:31.221Z,37.03
2022-11-28T18:15:59.018Z,37.23
2022-11-28T18:18:26.655Z,37.37
2022-11-28T18:20:54.287Z,35.50
2022-11-28T18:23:21.977Z,36.13
2022-11-28T18:25:49.644Z,38.07
2022-11-28T18:28:19.060Z,36.37
2022-11-28T18:30:48.681Z,35.77
2022-11-28T18:33:17.132Z,38.13
2022-11-28T18:35:44.749Z,37.85
2022-11-28T18:38:12.617Z,38.63
2022-11-28T18:40:40.511Z,39.03
2022-11-28T18:43:08.178Z,41.08
2022-11-28T18:45:35.850Z,36.07
2022-11-28T18:48:04.925Z,36.03
2022-11-28T18:50:32.532Z,36.57
2022-11-28T18:53:00.220Z,35.77
2022-11-28T18:55:27.833Z,39.20
2022-11-28T18:57:55.412Z,37.47
2022-11-28T19:00:23.749Z,38.17
2022-11-28T19:02:52.048Z,36.30
2022-11-28T19:05:21.069Z,37.72
2022-11-28T19:07:48.687Z,37.27
2022-11-28T19:10:16.368Z,38.77
2022-11-28T19:12:43.998Z,39.80
2022-11-28T19:15:11.889Z,39.27
2022-11-28T19:17:39.488Z,41.47
2022-11-28T19:20:09.740Z,40.00
2022-11-28T19:22:38.677Z,38.63
2022-11-28T19:25:07.616Z,39.47
2022-11-28T19:27:35.525Z,42.43
2022-11-28T19:30:03.282Z,37.05
2022-11-28T19:32:30.945Z,44.10
2022-11-28T19:34:58.526Z,43.73
2022-11-28T19:37:26.075Z,43.83
2022-11-28T19:39:59.742Z,43.13
2022-11-28T19:42:29.856Z,42.90
2022-11-28T19:44:57.582Z,46.97
2022-11-28T19:47:25.233Z,44.30
2022-11-28T19:49:52.847Z,44.73
2022-11-28T19:52:20.573Z,44.03
2022-11-28T19:54:48.289Z,48.77
2022-11-28T19:57:17.350Z,39.13
2022-11-28T19:59:45.309Z,41.27
2022-11-28T20:02:13.343Z,37.08
2022-11-28T20:04:43.418Z,37.93
2022-11-28T20:07:11.029Z,55.67
2022-11-28T20:09:38.700Z,40.40
2022-11-28T20:12:07.250Z,41.13
2022-11-28T20:14:36.329Z,39.83
2022-11-28T20:17:03.937Z,35.63
2022-11-28T20:19:31.772Z,39.27
2022-11-28T20:22:00.661Z,43.23
2022-11-28T20:26:57.948Z,34.10
2022-11-28T20:29:27.828Z,31.40
2022-11-28T20:31:57.593Z,37.50
2022-11-28T20:34:25.577Z,32.23
2022-11-28T20:36:53.803Z,41.55
2022-11-28T20:39:21.952Z,42.65
2022-11-28T20:41:49.612Z,41.75
2022-11-28T20:44:17.621Z,48.57
2022-11-28T20:46:46.283Z,43.60
2022-11-28T20:49:16.066Z,44.28
2022-11-28T20:51:43.929Z,37.63
2022-11-28T20:54:12.632Z,46.73
2022-11-28T20:57:12.880Z,40.95
2022-11-28T20:59:27.825Z,42.70
2022-11-28T21:01:55.633Z,48.30
2022-11-28T21:04:24.801Z,51.07
2022-11-28T21:06:52.456Z,48.50
2022-11-28T21:09:20.639Z,48.83
2022-11-28T21:11:57.923Z,44.38
2022-11-28T21:14:26.029Z,47.97
2022-11-28T21:16:53.641Z,45.20
2022-11-28T21:19:21.431Z,51.43
2022-11-28T21:21:50.383Z,43.37
2022-11-28T21:24:18.132Z,52.93
2022-11-28T21:26:52.650Z,46.27
2022-11-28T21:29:21.592Z,41.60
2022-11-28T21:31:49.567Z,40.73
2022-11-28T21:34:18.922Z,49.47
2022-11-28T21:36:46.526Z,45.33
2022-11-28T21:39:17.555Z,39.40
2022-11-28T21:41:45.438Z,48.07
2022-11-28T21:44:13.217Z,41.72
2022-11-28T21:46:40.823Z,42.80
2022-11-28T21:49:08.557Z,41.87
2022-11-28T21:51:36.173Z,47.57
2022-11-28T21:54:03.846Z,44.50
2022-11-28T21:56:32.898Z,41.30
2022-11-28T21:59:00.735Z,41.17
2022-11-28T22:01:28.461Z,41.65
2022-11-28T22:04:01.942Z,42.70
2022-11-28T22:06:30.378Z,43.53
2022-11-28T22:08:58.093Z,42.77
2022-11-28T22:11:26.054Z,47.37
2022-11-28T22:13:55.071Z,47.42
2022-11-28T22:16:25.128Z,48.23
2022-11-28T22:18:54.627Z,46.53
2022-11-28T22:26:38.774Z,40.45
2022-11-28T22:29:07.852Z,46.50
2022-11-28T22:31:35.698Z,46.80
2022-11-28T22:34:03.361Z,41.80
2022-11-28T22:36:31.935Z,49.60
2022-11-28T22:39:01.106Z,46.38
2022-11-28T22:41:29.732Z,43.47
2022-11-28T22:46:29.141Z,44.70
2022-11-28T22:48:56.873Z,50.20
2022-11-28T22:51:26.555Z,44.30
2022-11-28T22:53:55.378Z,46.57
2022-11-28T22:58:50.935Z,49.13
2022-11-28T23:01:20.896Z,45.45
2022-11-28T23:03:50.024Z,44.47
2022-11-28T23:06:19.325Z,47.40
2022-11-28T23:08:47.891Z,44.97
2022-11-28T23:11:17.776Z,49.70
2022-11-28T23:13:47.925Z,47.20
2022-11-28T23:16:18.175Z,41.57
2022-11-28T23:18:48.018Z,41.37
2022-11-28T23:21:18.519Z,41.27
2022-11-28T23:23:46.317Z,37.93
2022-11-28T23:26:16.090Z,45.60
2022-11-28T23:28:43.990Z,46.67
2022-11-28T23:31:14.330Z,45.58
2022-11-28T23:33:42.566Z,44.13
2022-11-28T23:36:15.353Z,37.28
2022-11-28T23:38:45.409Z,43.53
2022-11-28T23:41:13.728Z,42.10
2022-11-28T23:43:41.664Z,45.88
2022-11-28T23:46:10.716Z,49.08
2022-11-28T23:48:38.760Z,42.20
2022-11-28T23:51:07.185Z,44.35
2022-11-28T23:53:35.334Z,41.95
2022-11-28T23:56:06.063Z,45.63
2022-11-28T23:58:34.882Z,45.73
